sensor_id;sensor_type;location;lat;lon;timestamp;P1;durP1;ratioP1;P2;durP2;ratioP2
1545;SDS011;766;51.502;9.752;2022-11-20T00:00:12;11.90;;;5.60;;
1545;SDS011;766;51.502;9.752;2022-11-20T00:02:41;13.53;;;5.97;;
1545;SDS011;766;51.502;9.752;2022-11-20T00:05:11;9.33;;;4.93;;
1545;SDS011;766;51.502;9.752;2022-11-20T00:07:40;8.07;;;4.60;;
1545;SDS011;766;51.502;9.752;2022-11-20T00:10:08;9.90;;;4.53;;
1545;SDS011;766;51.502;9.752;2022-11-20T00:12:40;7.67;;;4.13;;
1545;SDS011;766;51.502;9.752;2022-11-20T00:15:09;9.13;;;4.90;;
1545;SDS011;766;51.502;9.752;2022-11-20T00:17:38;10.83;;;5.27;;
1545;SDS011;766;51.502;9.752;2022-11-20T00:20:07;9.27;;;4.93;;
1545;SDS011;766;51.502;9.752;2022-11-20T00:22:37;13.37;;;5.60;;
1545;SDS011;766;51.502;9.752;2022-11-20T00:25:06;11.07;;;4.57;;
1545;SDS011;766;51.502;9.752;2022-11-20T00:27:34;8.37;;;4.57;;
1545;SDS011;766;51.502;9.752;2022-11-20T00:30:07;8.07;;;4.23;;
1545;SDS011;766;51.502;9.752;2022-11-20T00:32:40;6.50;;;4.17;;
1545;SDS011;766;51.502;9.752;2022-11-20T00:35:09;6.30;;;3.83;;
1545;SDS011;766;51.502;9.752;2022-11-20T00:37:39;6.00;;;3.97;;
1545;SDS011;766;51.502;9.752;2022-11-20T00:40:07;9.10;;;4.67;;
1545;SDS011;766;51.502;9.752;2022-11-20T00:42:37;7.73;;;4.50;;
1545;SDS011;766;51.502;9.752;2022-11-20T00:45:05;8.27;;;4.30;;
1545;SDS011;766;51.502;9.752;2022-11-20T00:47:34;8.10;;;4.60;;
1545;SDS011;766;51.502;9.752;2022-11-20T00:50:03;10.23;;;5.20;;
1545;SDS011;766;51.502;9.752;2022-11-20T00:52:32;6.93;;;4.10;;
1545;SDS011;766;51.502;9.752;2022-11-20T00:55:01;8.37;;;4.30;;
1545;SDS011;766;51.502;9.752;2022-11-20T00:57:32;7.97;;;4.67;;
1545;SDS011;766;51.502;9.752;2022-11-20T01:00:00;7.93;;;4.20;;
1545;SDS011;766;51.502;9.752;2022-11-20T01:02:28;9.87;;;4.87;;
1545;SDS011;766;51.502;9.752;2022-11-20T01:04:57;7.93;;;4.43;;
1545;SDS011;766;51.502;9.752;2022-11-20T01:07:25;6.93;;;4.17;;
1545;SDS011;766;51.502;9.752;2022-11-20T01:09:54;8.77;;;4.53;;
1545;SDS011;766;51.502;9.752;2022-11-20T01:12:23;5.00;;;3.20;;
1545;SDS011;766;51.502;9.752;2022-11-20T01:14:52;9.57;;;4.63;;
1545;SDS011;766;51.502;9.752;2022-11-20T01:17:21;8.10;;;4.70;;
1545;SDS011;766;51.502;9.752;2022-11-20T01:19:49;8.47;;;4.93;;
1545;SDS011;766;51.502;9.752;2022-11-20T01:22:18;12.43;;;6.13;;
1545;SDS011;766;51.502;9.752;2022-11-20T01:24:47;9.13;;;4.87;;
1545;SDS011;766;51.502;9.752;2022-11-20T01:27:15;10.67;;;5.30;;
1545;SDS011;766;51.502;9.752;2022-11-20T01:29:45;12.00;;;5.23;;
1545;SDS011;766;51.502;9.752;2022-11-20T01:32:13;15.13;;;6.80;;
1545;SDS011;766;51.502;9.752;2022-11-20T01:34:42;11.73;;;6.33;;
1545;SDS011;766;51.502;9.752;2022-11-20T01:37:10;11.40;;;5.60;;
1545;SDS011;766;51.502;9.752;2022-11-20T01:39:39;10.70;;;4.83;;
1545;SDS011;766;51.502;9.752;2022-11-20T01:42:07;9.60;;;5.17;;
1545;SDS011;766;51.502;9.752;2022-11-20T01:44:56;10.27;;;5.00;;
1545;SDS011;766;51.502;9.752;2022-11-20T01:47:30;9.57;;;5.27;;
1545;SDS011;766;51.502;9.752;2022-11-20T01:50:04;10.23;;;5.13;;
1545;SDS011;766;51.502;9.752;2022-11-20T01:52:39;10.57;;;5.77;;
1545;SDS011;766;51.502;9.752;2022-11-20T01:55:15;11.90;;;6.10;;
1545;SDS011;766;51.502;9.752;2022-11-20T01:57:47;8.20;;;4.60;;
1545;SDS011;766;51.502;9.752;2022-11-20T02:00:18;10.97;;;5.50;;
1545;SDS011;766;51.502;9.752;2022-11-20T02:02:50;9.20;;;5.80;;
1545;SDS011;766;51.502;9.752;2022-11-20T02:05:23;14.57;;;6.57;;
1545;SDS011;766;51.502;9.752;2022-11-20T02:07:56;11.10;;;6.30;;
1545;SDS011;766;51.502;9.752;2022-11-20T02:10:26;14.00;;;5.93;;
1545;SDS011;766;51.502;9.752;2022-11-20T02:12:55;12.63;;;5.93;;
1545;SDS011;766;51.502;9.752;2022-11-20T02:15:43;11.57;;;5.73;;
1545;SDS011;766;51.502;9.752;2022-11-20T02:18:13;11.07;;;6.13;;
1545;SDS011;766;51.502;9.752;2022-11-20T02:20:43;13.10;;;6.90;;
1545;SDS011;766;51.502;9.752;2022-11-20T02:23:15;11.83;;;6.37;;
1545;SDS011;766;51.502;9.752;2022-11-20T02:25:49;12.87;;;5.27;;
1545;SDS011;766;51.502;9.752;2022-11-20T02:28:20;9.90;;;5.87;;
1545;SDS011;766;51.502;9.752;2022-11-20T02:30:50;13.30;;;6.50;;
1545;SDS011;766;51.502;9.752;2022-11-20T02:33:18;11.60;;;6.27;;
1545;SDS011;766;51.502;9.752;2022-11-20T02:35:50;13.97;;;6.53;;
1545;SDS011;766;51.502;9.752;2022-11-20T02:38:18;13.50;;;6.10;;
1545;SDS011;766;51.502;9.752;2022-11-20T02:41:02;9.57;;;5.60;;
1545;SDS011;766;51.502;9.752;2022-11-20T02:43:44;13.60;;;6.60;;
1545;SDS011;766;51.502;9.752;2022-11-20T02:46:13;10.17;;;5.77;;
1545;SDS011;766;51.502;9.752;2022-11-20T02:48:41;12.47;;;6.37;;
1545;SDS011;766;51.502;9.752;2022-11-20T02:51:10;11.07;;;5.60;;
1545;SDS011;766;51.502;9.752;2022-11-20T02:53:39;11.97;;;6.10;;
1545;SDS011;766;51.502;9.752;2022-11-20T02:56:08;10.03;;;5.67;;
1545;SDS011;766;51.502;9.752;2022-11-20T02:58:37;11.20;;;6.00;;
1545;SDS011;766;51.502;9.752;2022-11-20T03:01:09;13.93;;;6.83;;
1545;SDS011;766;51.502;9.752;2022-11-20T03:03:37;14.80;;;6.50;;
1545;SDS011;766;51.502;9.752;2022-11-20T03:06:06;11.23;;;6.60;;
1545;SDS011;766;51.502;9.752;2022-11-20T03:08:36;10.80;;;6.00;;
1545;SDS011;766;51.502;9.752;2022-11-20T03:11:05;12.30;;;6.10;;
1545;SDS011;766;51.502;9.752;2022-11-20T03:16:20;11.90;;;6.47;;
1545;SDS011;766;51.502;9.752;2022-11-20T03:18:51;15.77;;;6.70;;
1545;SDS011;766;51.502;9.752;2022-11-20T03:21:21;16.53;;;6.93;;
1545;SDS011;766;51.502;9.752;2022-11-20T03:23:49;15.37;;;6.93;;
1545;SDS011;766;51.502;9.752;2022-11-20T03:26:18;14.10;;;6.43;;
1545;SDS011;766;51.502;9.752;2022-11-20T03:28:48;13.33;;;6.50;;
1545;SDS011;766;51.502;9.752;2022-11-20T03:31:19;23.07;;;9.17;;
1545;SDS011;766;51.502;9.752;2022-11-20T03:33:58;18.77;;;9.13;;
1545;SDS011;766;51.502;9.752;2022-11-20T03:36:27;13.80;;;7.00;;
1545;SDS011;766;51.502;9.752;2022-11-20T03:38:56;11.00;;;5.27;;
1545;SDS011;766;51.502;9.752;2022-11-20T03:41:39;11.07;;;5.33;;
1545;SDS011;766;51.502;9.752;2022-11-20T03:44:11;11.40;;;5.43;;
1545;SDS011;766;51.502;9.752;2022-11-20T03:46:39;9.47;;;4.93;;
1545;SDS011;766;51.502;9.752;2022-11-20T03:49:08;10.57;;;5.73;;
1545;SDS011;766;51.502;9.752;2022-11-20T03:51:36;11.27;;;6.00;;
1545;SDS011;766;51.502;9.752;2022-11-20T03:54:08;12.43;;;6.77;;
1545;SDS011;766;51.502;9.752;2022-11-20T03:56:38;12.30;;;6.27;;
1545;SDS011;766;51.502;9.752;2022-11-20T03:59:06;13.77;;;6.30;;
1545;SDS011;766;51.502;9.752;2022-11-20T04:01:39;13.63;;;7.17;;
1545;SDS011;766;51.502;9.752;2022-11-20T04:04:17;15.67;;;7.67;;
1545;SDS011;766;51.502;9.752;2022-11-20T04:06:46;12.20;;;6.23;;
1545;SDS011;766;51.502;9.752;2022-11-20T04:09:14;13.40;;;6.97;;
1545;SDS011;766;51.502;9.752;2022-11-20T04:11:42;13.97;;;6.83;;
1545;SDS011;766;51.502;9.752;2022-11-20T04:14:12;12.30;;;6.70;;
1545;SDS011;766;51.502;9.752;2022-11-20T04:16:44;13.17;;;6.60;;
1545;SDS011;766;51.502;9.752;2022-11-20T04:19:12;13.07;;;6.63;;
1545;SDS011;766;51.502;9.752;2022-11-20T04:21:42;12.20;;;6.50;;
1545;SDS011;766;51.502;9.752;2022-11-20T04:24:11;12.70;;;6.00;;
1545;SDS011;766;51.502;9.752;2022-11-20T04:26:39;12.87;;;6.13;;
1545;SDS011;766;51.502;9.752;2022-11-20T04:29:09;10.97;;;5.03;;
1545;SDS011;766;51.502;9.752;2022-11-20T04:31:39;12.97;;;5.60;;
1545;SDS011;766;51.502;9.752;2022-11-20T04:34:10;11.80;;;6.03;;
1545;SDS011;766;51.502;9.752;2022-11-20T04:36:40;14.40;;;6.50;;
1545;SDS011;766;51.502;9.752;2022-11-20T04:39:11;15.10;;;6.97;;
1545;SDS011;766;51.502;9.752;2022-11-20T04:41:41;18.67;;;8.33;;
1545;SDS011;766;51.502;9.752;2022-11-20T04:44:10;22.03;;;10.07;;
1545;SDS011;766;51.502;9.752;2022-11-20T04:46:39;33.67;;;13.23;;
1545;SDS011;766;51.502;9.752;2022-11-20T04:49:11;22.17;;;9.03;;
1545;SDS011;766;51.502;9.752;2022-11-20T04:51:41;20.80;;;9.63;;
1545;SDS011;766;51.502;9.752;2022-11-20T04:54:10;16.23;;;8.17;;
1545;SDS011;766;51.502;9.752;2022-11-20T04:56:39;16.17;;;7.20;;
1545;SDS011;766;51.502;9.752;2022-11-20T04:59:07;15.93;;;6.70;;
1545;SDS011;766;51.502;9.752;2022-11-20T05:01:35;19.57;;;7.20;;
1545;SDS011;766;51.502;9.752;2022-11-20T05:04:04;13.57;;;6.73;;
1545;SDS011;766;51.502;9.752;2022-11-20T05:06:34;16.70;;;7.77;;
1545;SDS011;766;51.502;9.752;2022-11-20T05:09:03;15.20;;;7.93;;
1545;SDS011;766;51.502;9.752;2022-11-20T05:11:31;16.10;;;7.77;;
1545;SDS011;766;51.502;9.752;2022-11-20T05:14:00;15.33;;;7.33;;
1545;SDS011;766;51.502;9.752;2022-11-20T05:16:28;16.10;;;8.20;;
1545;SDS011;766;51.502;9.752;2022-11-20T05:18:57;18.43;;;7.90;;
1545;SDS011;766;51.502;9.752;2022-11-20T05:21:26;17.27;;;8.60;;
1545;SDS011;766;51.502;9.752;2022-11-20T05:23:56;15.40;;;7.90;;
1545;SDS011;766;51.502;9.752;2022-11-20T05:26:25;20.13;;;7.17;;
1545;SDS011;766;51.502;9.752;2022-11-20T05:28:53;21.43;;;7.87;;
1545;SDS011;766;51.502;9.752;2022-11-20T05:31:24;32.37;;;9.13;;
1545;SDS011;766;51.502;9.752;2022-11-20T05:33:54;22.00;;;8.47;;
1545;SDS011;766;51.502;9.752;2022-11-20T05:36:24;24.63;;;8.77;;
1545;SDS011;766;51.502;9.752;2022-11-20T05:38:53;21.47;;;9.10;;
1545;SDS011;766;51.502;9.752;2022-11-20T05:41:29;21.30;;;8.70;;
1545;SDS011;766;51.502;9.752;2022-11-20T05:43:57;20.57;;;8.47;;
1545;SDS011;766;51.502;9.752;2022-11-20T05:46:26;23.20;;;9.80;;
1545;SDS011;766;51.502;9.752;2022-11-20T05:48:55;20.90;;;9.90;;
1545;SDS011;766;51.502;9.752;2022-11-20T05:51:24;25.20;;;10.20;;
1545;SDS011;766;51.502;9.752;2022-11-20T05:53:53;25.13;;;10.87;;
1545;SDS011;766;51.502;9.752;2022-11-20T05:56:23;32.07;;;10.93;;
1545;SDS011;766;51.502;9.752;2022-11-20T05:58:53;27.50;;;10.63;;
1545;SDS011;766;51.502;9.752;2022-11-20T06:01:22;22.57;;;10.90;;
1545;SDS011;766;51.502;9.752;2022-11-20T06:03:54;28.53;;;11.10;;
1545;SDS011;766;51.502;9.752;2022-11-20T06:06:22;25.83;;;11.40;;
1545;SDS011;766;51.502;9.752;2022-11-20T06:08:52;22.57;;;10.00;;
1545;SDS011;766;51.502;9.752;2022-11-20T06:11:20;27.90;;;10.10;;
1545;SDS011;766;51.502;9.752;2022-11-20T06:13:50;24.40;;;10.13;;
1545;SDS011;766;51.502;9.752;2022-11-20T06:16:20;26.47;;;10.60;;
1545;SDS011;766;51.502;9.752;2022-11-20T06:18:49;24.23;;;10.40;;
1545;SDS011;766;51.502;9.752;2022-11-20T06:21:18;21.73;;;9.17;;
1545;SDS011;766;51.502;9.752;2022-11-20T06:23:49;29.60;;;10.97;;
1545;SDS011;766;51.502;9.752;2022-11-20T06:26:20;25.27;;;9.27;;
1545;SDS011;766;51.502;9.752;2022-11-20T06:28:49;20.47;;;9.47;;
1545;SDS011;766;51.502;9.752;2022-11-20T06:31:19;20.73;;;9.27;;
1545;SDS011;766;51.502;9.752;2022-11-20T06:33:50;25.27;;;10.40;;
1545;SDS011;766;51.502;9.752;2022-11-20T06:36:20;23.63;;;10.30;;
1545;SDS011;766;51.502;9.752;2022-11-20T06:38:49;29.07;;;10.33;;
1545;SDS011;766;51.502;9.752;2022-11-20T06:41:18;22.17;;;9.87;;
1545;SDS011;766;51.502;9.752;2022-11-20T06:43:48;21.60;;;8.97;;
1545;SDS011;766;51.502;9.752;2022-11-20T06:46:17;43.03;;;9.77;;
1545;SDS011;766;51.502;9.752;2022-11-20T06:48:48;27.53;;;9.40;;
1545;SDS011;766;51.502;9.752;2022-11-20T06:51:17;22.63;;;8.47;;
1545;SDS011;766;51.502;9.752;2022-11-20T06:53:46;20.50;;;9.53;;
1545;SDS011;766;51.502;9.752;2022-11-20T06:56:14;25.07;;;8.87;;
1545;SDS011;766;51.502;9.752;2022-11-20T06:58:43;38.70;;;9.40;;
1545;SDS011;766;51.502;9.752;2022-11-20T07:01:11;16.97;;;8.47;;
1545;SDS011;766;51.502;9.752;2022-11-20T07:03:41;18.93;;;8.60;;
1545;SDS011;766;51.502;9.752;2022-11-20T07:06:11;16.57;;;8.23;;
1545;SDS011;766;51.502;9.752;2022-11-20T07:08:39;18.10;;;8.43;;
1545;SDS011;766;51.502;9.752;2022-11-20T07:11:08;20.80;;;9.03;;
1545;SDS011;766;51.502;9.752;2022-11-20T07:13:39;19.00;;;8.63;;
1545;SDS011;766;51.502;9.752;2022-11-20T07:16:07;18.37;;;8.33;;
1545;SDS011;766;51.502;9.752;2022-11-20T07:18:36;20.43;;;8.80;;
1545;SDS011;766;51.502;9.752;2022-11-20T07:21:05;14.07;;;7.20;;
1545;SDS011;766;51.502;9.752;2022-11-20T07:23:37;20.13;;;9.27;;
1545;SDS011;766;51.502;9.752;2022-11-20T07:26:06;13.10;;;7.17;;
1545;SDS011;766;51.502;9.752;2022-11-20T07:28:36;16.53;;;8.00;;
1545;SDS011;766;51.502;9.752;2022-11-20T07:31:05;18.37;;;8.27;;
1545;SDS011;766;51.502;9.752;2022-11-20T07:33:35;18.43;;;8.60;;
1545;SDS011;766;51.502;9.752;2022-11-20T07:36:03;18.63;;;8.50;;
1545;SDS011;766;51.502;9.752;2022-11-20T07:38:32;18.10;;;8.67;;
1545;SDS011;766;51.502;9.752;2022-11-20T07:41:03;18.33;;;8.77;;
1545;SDS011;766;51.502;9.752;2022-11-20T07:43:32;19.40;;;8.70;;
1545;SDS011;766;51.502;9.752;2022-11-20T07:46:06;15.57;;;7.60;;
1545;SDS011;766;51.502;9.752;2022-11-20T07:48:35;16.13;;;8.17;;
1545;SDS011;766;51.502;9.752;2022-11-20T07:51:04;16.33;;;7.30;;
1545;SDS011;766;51.502;9.752;2022-11-20T07:53:34;14.60;;;7.63;;
1545;SDS011;766;51.502;9.752;2022-11-20T07:56:04;17.47;;;8.43;;
1545;SDS011;766;51.502;9.752;2022-11-20T07:58:33;17.60;;;7.77;;
1545;SDS011;766;51.502;9.752;2022-11-20T08:01:04;14.23;;;8.00;;
1545;SDS011;766;51.502;9.752;2022-11-20T08:03:35;15.90;;;7.50;;
1545;SDS011;766;51.502;9.752;2022-11-20T08:06:06;14.77;;;8.17;;
1545;SDS011;766;51.502;9.752;2022-11-20T08:08:35;16.63;;;8.53;;
1545;SDS011;766;51.502;9.752;2022-11-20T08:11:10;14.37;;;7.40;;
1545;SDS011;766;51.502;9.752;2022-11-20T08:13:55;15.43;;;7.53;;
1545;SDS011;766;51.502;9.752;2022-11-20T08:16:39;16.63;;;8.03;;
1545;SDS011;766;51.502;9.752;2022-11-20T08:19:08;23.90;;;11.30;;
1545;SDS011;766;51.502;9.752;2022-11-20T08:21:37;15.10;;;7.97;;
1545;SDS011;766;51.502;9.752;2022-11-20T08:24:09;16.43;;;8.23;;
1545;SDS011;766;51.502;9.752;2022-11-20T08:26:39;16.47;;;8.07;;
1545;SDS011;766;51.502;9.752;2022-11-20T08:29:08;18.27;;;8.37;;
1545;SDS011;766;51.502;9.752;2022-11-20T08:31:36;14.40;;;6.90;;
1545;SDS011;766;51.502;9.752;2022-11-20T08:34:04;16.93;;;8.10;;
1545;SDS011;766;51.502;9.752;2022-11-20T08:36:38;17.10;;;8.50;;
1545;SDS011;766;51.502;9.752;2022-11-20T08:39:06;19.40;;;8.57;;
1545;SDS011;766;51.502;9.752;2022-11-20T08:41:35;16.47;;;7.33;;
1545;SDS011;766;51.502;9.752;2022-11-20T08:44:11;17.30;;;8.73;;
1545;SDS011;766;51.502;9.752;2022-11-20T08:46:40;16.67;;;8.10;;
1545;SDS011;766;51.502;9.752;2022-11-20T08:49:10;18.97;;;8.13;;
1545;SDS011;766;51.502;9.752;2022-11-20T08:51:40;17.23;;;8.33;;
1545;SDS011;766;51.502;9.752;2022-11-20T08:54:09;16.43;;;8.27;;
1545;SDS011;766;51.502;9.752;2022-11-20T08:56:37;15.63;;;7.53;;
1545;SDS011;766;51.502;9.752;2022-11-20T08:59:05;15.83;;;7.93;;
1545;SDS011;766;51.502;9.752;2022-11-20T09:01:56;18.13;;;9.20;;
1545;SDS011;766;51.502;9.752;2022-11-20T09:04:25;14.27;;;7.67;;
1545;SDS011;766;51.502;9.752;2022-11-20T09:06:54;18.50;;;8.33;;
1545;SDS011;766;51.502;9.752;2022-11-20T09:09:22;16.40;;;8.20;;
1545;SDS011;766;51.502;9.752;2022-11-20T09:11:51;18.77;;;8.50;;
1545;SDS011;766;51.502;9.752;2022-11-20T09:14:20;14.03;;;7.17;;
1545;SDS011;766;51.502;9.752;2022-11-20T09:16:51;16.83;;;8.80;;
1545;SDS011;766;51.502;9.752;2022-11-20T09:19:21;17.50;;;9.10;;
1545;SDS011;766;51.502;9.752;2022-11-20T09:22:06;18.13;;;9.30;;
1545;SDS011;766;51.502;9.752;2022-11-20T09:24:35;15.43;;;7.83;;
1545;SDS011;766;51.502;9.752;2022-11-20T09:27:04;17.00;;;9.03;;
1545;SDS011;766;51.502;9.752;2022-11-20T09:29:32;18.80;;;8.53;;
1545;SDS011;766;51.502;9.752;2022-11-20T09:32:01;17.90;;;9.73;;
1545;SDS011;766;51.502;9.752;2022-11-20T09:34:31;17.30;;;8.17;;
1545;SDS011;766;51.502;9.752;2022-11-20T09:36:59;18.77;;;9.17;;
1545;SDS011;766;51.502;9.752;2022-11-20T09:39:33;16.13;;;7.93;;
1545;SDS011;766;51.502;9.752;2022-11-20T09:42:17;20.00;;;8.83;;
1545;SDS011;766;51.502;9.752;2022-11-20T09:45:15;16.37;;;9.13;;
1545;SDS011;766;51.502;9.752;2022-11-20T09:50:47;17.90;;;9.30;;
1545;SDS011;766;51.502;9.752;2022-11-20T09:53:23;16.30;;;9.10;;
1545;SDS011;766;51.502;9.752;2022-11-20T09:55:59;18.87;;;9.17;;
1545;SDS011;766;51.502;9.752;2022-11-20T09:58:31;18.27;;;9.93;;
1545;SDS011;766;51.502;9.752;2022-11-20T10:01:05;18.17;;;9.40;;
1545;SDS011;766;51.502;9.752;2022-11-20T10:03:51;18.57;;;9.67;;
1545;SDS011;766;51.502;9.752;2022-11-20T10:06:27;16.63;;;8.80;;
1545;SDS011;766;51.502;9.752;2022-11-20T10:09:01;17.53;;;9.67;;
1545;SDS011;766;51.502;9.752;2022-11-20T10:11:39;19.17;;;9.67;;
1545;SDS011;766;51.502;9.752;2022-11-20T10:14:20;16.10;;;8.43;;
1545;SDS011;766;51.502;9.752;2022-11-20T10:17:00;17.40;;;8.57;;
1545;SDS011;766;51.502;9.752;2022-11-20T10:19:39;16.90;;;9.37;;
1545;SDS011;766;51.502;9.752;2022-11-20T10:22:21;17.93;;;9.73;;
1545;SDS011;766;51.502;9.752;2022-11-20T10:25:04;19.03;;;9.70;;
1545;SDS011;766;51.502;9.752;2022-11-20T10:27:49;14.47;;;8.27;;
1545;SDS011;766;51.502;9.752;2022-11-20T10:30:35;15.67;;;8.73;;
1545;SDS011;766;51.502;9.752;2022-11-20T10:33:08;14.07;;;8.23;;
1545;SDS011;766;51.502;9.752;2022-11-20T10:35:44;15.33;;;8.43;;
1545;SDS011;766;51.502;9.752;2022-11-20T10:38:18;16.97;;;8.10;;
1545;SDS011;766;51.502;9.752;2022-11-20T10:40:52;14.87;;;8.90;;
1545;SDS011;766;51.502;9.752;2022-11-20T10:43:46;15.17;;;8.20;;
1545;SDS011;766;51.502;9.752;2022-11-20T10:46:20;16.30;;;8.40;;
1545;SDS011;766;51.502;9.752;2022-11-20T10:48:49;15.67;;;7.60;;
1545;SDS011;766;51.502;9.752;2022-11-20T10:51:21;14.30;;;8.07;;
1545;SDS011;766;51.502;9.752;2022-11-20T10:54:03;15.37;;;8.23;;
1545;SDS011;766;51.502;9.752;2022-11-20T10:56:40;21.07;;;9.30;;
1545;SDS011;766;51.502;9.752;2022-11-20T10:59:30;15.73;;;8.67;;
1545;SDS011;766;51.502;9.752;2022-11-20T11:02:17;17.83;;;9.43;;
1545;SDS011;766;51.502;9.752;2022-11-20T11:04:47;17.57;;;9.43;;
1545;SDS011;766;51.502;9.752;2022-11-20T11:07:19;16.90;;;8.77;;
1545;SDS011;766;51.502;9.752;2022-11-20T11:09:52;14.23;;;8.20;;
1545;SDS011;766;51.502;9.752;2022-11-20T11:12:22;13.93;;;8.23;;
1545;SDS011;766;51.502;9.752;2022-11-20T11:14:53;18.00;;;8.83;;
1545;SDS011;766;51.502;9.752;2022-11-20T11:17:23;15.03;;;8.40;;
1545;SDS011;766;51.502;9.752;2022-11-20T11:19:58;17.27;;;8.70;;
1545;SDS011;766;51.502;9.752;2022-11-20T11:22:44;14.37;;;7.63;;
1545;SDS011;766;51.502;9.752;2022-11-20T11:25:23;12.80;;;7.33;;
1545;SDS011;766;51.502;9.752;2022-11-20T11:27:57;15.23;;;8.27;;
1545;SDS011;766;51.502;9.752;2022-11-20T11:30:30;15.07;;;8.07;;
1545;SDS011;766;51.502;9.752;2022-11-20T11:33:11;17.70;;;9.53;;
1545;SDS011;766;51.502;9.752;2022-11-20T11:35:47;15.27;;;8.10;;
1545;SDS011;766;51.502;9.752;2022-11-20T11:38:21;15.87;;;8.47;;
1545;SDS011;766;51.502;9.752;2022-11-20T11:40:58;16.03;;;9.10;;
1545;SDS011;766;51.502;9.752;2022-11-20T11:43:28;15.80;;;8.95;;
1545;SDS011;766;51.502;9.752;2022-11-20T11:46:24;14.07;;;8.20;;
1545;SDS011;766;51.502;9.752;2022-11-20T11:48:59;13.53;;;7.87;;
1545;SDS011;766;51.502;9.752;2022-11-20T11:51:34;15.87;;;8.03;;
1545;SDS011;766;51.502;9.752;2022-11-20T11:54:14;13.77;;;8.27;;
1545;SDS011;766;51.502;9.752;2022-11-20T11:56:46;16.05;;;8.63;;
1545;SDS011;766;51.502;9.752;2022-11-20T11:59:17;11.93;;;7.47;;
1545;SDS011;766;51.502;9.752;2022-11-20T12:01:54;12.98;;;7.63;;
1545;SDS011;766;51.502;9.752;2022-11-20T12:04:35;12.45;;;7.22;;
1545;SDS011;766;51.502;9.752;2022-11-20T12:07:10;13.63;;;7.65;;
1545;SDS011;766;51.502;9.752;2022-11-20T12:10:03;13.27;;;7.78;;
1545;SDS011;766;51.502;9.752;2022-11-20T12:12:36;11.52;;;7.35;;
1545;SDS011;766;51.502;9.752;2022-11-20T12:15:08;9.80;;;6.93;;
1545;SDS011;766;51.502;9.752;2022-11-20T12:17:39;13.88;;;6.93;;
1545;SDS011;766;51.502;9.752;2022-11-20T12:20:11;11.98;;;7.03;;
1545;SDS011;766;51.502;9.752;2022-11-20T12:22:44;10.65;;;6.78;;
1545;SDS011;766;51.502;9.752;2022-11-20T12:25:20;10.68;;;7.03;;
1545;SDS011;766;51.502;9.752;2022-11-20T12:27:59;12.57;;;7.07;;
1545;SDS011;766;51.502;9.752;2022-11-20T12:30:54;9.30;;;5.50;;
1545;SDS011;766;51.502;9.752;2022-11-20T12:33:41;9.48;;;5.28;;
1545;SDS011;766;51.502;9.752;2022-11-20T12:36:24;8.77;;;5.30;;
1545;SDS011;766;51.502;9.752;2022-11-20T12:39:07;10.50;;;5.45;;
1545;SDS011;766;51.502;9.752;2022-11-20T12:45:12;9.02;;;4.85;;
1545;SDS011;766;51.502;9.752;2022-11-20T12:48:08;9.02;;;4.82;;
1545;SDS011;766;51.502;9.752;2022-11-20T12:51:08;10.32;;;5.85;;
1545;SDS011;766;51.502;9.752;2022-11-20T12:53:54;8.95;;;5.60;;
1545;SDS011;766;51.502;9.752;2022-11-20T12:56:36;10.95;;;5.85;;
1545;SDS011;766;51.502;9.752;2022-11-20T12:59:16;10.43;;;5.95;;
1545;SDS011;766;51.502;9.752;2022-11-20T13:02:03;9.13;;;5.45;;
1545;SDS011;766;51.502;9.752;2022-11-20T13:04:50;7.55;;;4.80;;
1545;SDS011;766;51.502;9.752;2022-11-20T13:07:29;9.30;;;5.45;;
1545;SDS011;766;51.502;9.752;2022-11-20T13:09:59;7.90;;;5.03;;
1545;SDS011;766;51.502;9.752;2022-11-20T13:12:33;9.90;;;5.45;;
1545;SDS011;766;51.502;9.752;2022-11-20T13:15:05;8.65;;;4.85;;
1545;SDS011;766;51.502;9.752;2022-11-20T13:17:47;10.18;;;5.60;;
1545;SDS011;766;51.502;9.752;2022-11-20T13:20:21;9.07;;;4.65;;
1545;SDS011;766;51.502;9.752;2022-11-20T13:22:50;9.97;;;5.00;;
1545;SDS011;766;51.502;9.752;2022-11-20T13:25:24;9.52;;;5.30;;
1545;SDS011;766;51.502;9.752;2022-11-20T13:27:54;9.23;;;5.00;;
1545;SDS011;766;51.502;9.752;2022-11-20T13:30:24;8.33;;;4.53;;
1545;SDS011;766;51.502;9.752;2022-11-20T13:32:56;9.80;;;4.63;;
1545;SDS011;766;51.502;9.752;2022-11-20T13:35:29;6.72;;;3.85;;
1545;SDS011;766;51.502;9.752;2022-11-20T13:38:00;8.10;;;4.47;;
1545;SDS011;766;51.502;9.752;2022-11-20T13:40:33;9.37;;;5.03;;
1545;SDS011;766;51.502;9.752;2022-11-20T13:43:07;9.33;;;4.73;;
1545;SDS011;766;51.502;9.752;2022-11-20T13:45:53;8.23;;;4.67;;
1545;SDS011;766;51.502;9.752;2022-11-20T13:48:25;9.27;;;4.93;;
1545;SDS011;766;51.502;9.752;2022-11-20T13:51:03;10.23;;;5.23;;
1545;SDS011;766;51.502;9.752;2022-11-20T13:53:52;9.97;;;4.57;;
1545;SDS011;766;51.502;9.752;2022-11-20T13:56:48;9.77;;;5.27;;
1545;SDS011;766;51.502;9.752;2022-11-20T13:59:35;8.53;;;4.33;;
1545;SDS011;766;51.502;9.752;2022-11-20T14:02:11;8.17;;;5.13;;
1545;SDS011;766;51.502;9.752;2022-11-20T14:04:45;10.80;;;5.00;;
1545;SDS011;766;51.502;9.752;2022-11-20T14:07:16;8.80;;;4.63;;
1545;SDS011;766;51.502;9.752;2022-11-20T14:09:50;10.27;;;5.13;;
1545;SDS011;766;51.502;9.752;2022-11-20T14:12:20;10.53;;;5.00;;
1545;SDS011;766;51.502;9.752;2022-11-20T14:14:52;12.13;;;5.70;;
1545;SDS011;766;51.502;9.752;2022-11-20T14:17:22;10.33;;;5.60;;
1545;SDS011;766;51.502;9.752;2022-11-20T14:19:54;11.27;;;5.73;;
1545;SDS011;766;51.502;9.752;2022-11-20T14:22:26;10.13;;;5.30;;
1545;SDS011;766;51.502;9.752;2022-11-20T14:25:02;9.70;;;5.50;;
1545;SDS011;766;51.502;9.752;2022-11-20T14:27:33;11.53;;;6.10;;
1545;SDS011;766;51.502;9.752;2022-11-20T14:30:04;11.60;;;6.67;;
1545;SDS011;766;51.502;9.752;2022-11-20T14:32:34;12.77;;;6.97;;
1545;SDS011;766;51.502;9.752;2022-11-20T14:35:08;12.17;;;6.70;;
1545;SDS011;766;51.502;9.752;2022-11-20T14:37:41;15.07;;;6.97;;
1545;SDS011;766;51.502;9.752;2022-11-20T14:40:21;15.40;;;6.83;;
1545;SDS011;766;51.502;9.752;2022-11-20T14:42:53;12.73;;;7.10;;
1545;SDS011;766;51.502;9.752;2022-11-20T14:45:22;15.27;;;8.07;;
1545;SDS011;766;51.502;9.752;2022-11-20T14:47:51;14.20;;;7.57;;
1545;SDS011;766;51.502;9.752;2022-11-20T14:50:22;13.77;;;7.03;;
1545;SDS011;766;51.502;9.752;2022-11-20T14:52:53;14.57;;;6.40;;
1545;SDS011;766;51.502;9.752;2022-11-20T14:55:27;10.77;;;6.10;;
1545;SDS011;766;51.502;9.752;2022-11-20T14:57:58;11.80;;;6.33;;
1545;SDS011;766;51.502;9.752;2022-11-20T15:00:28;12.10;;;5.93;;
1545;SDS011;766;51.502;9.752;2022-11-20T15:02:58;13.13;;;6.83;;
1545;SDS011;766;51.502;9.752;2022-11-20T15:08:16;12.50;;;5.70;;
1545;SDS011;766;51.502;9.752;2022-11-20T15:10:45;13.10;;;5.23;;
1545;SDS011;766;51.502;9.752;2022-11-20T15:13:18;10.00;;;6.00;;
1545;SDS011;766;51.502;9.752;2022-11-20T15:15:53;8.77;;;4.60;;
1545;SDS011;766;51.502;9.752;2022-11-20T15:18:22;9.50;;;5.07;;
1545;SDS011;766;51.502;9.752;2022-11-20T15:20:56;8.77;;;4.80;;
1545;SDS011;766;51.502;9.752;2022-11-20T15:23:26;9.77;;;4.80;;
1545;SDS011;766;51.502;9.752;2022-11-20T15:25:56;8.50;;;4.60;;
1545;SDS011;766;51.502;9.752;2022-11-20T15:28:27;9.03;;;4.87;;
1545;SDS011;766;51.502;9.752;2022-11-20T15:30:59;7.63;;;4.63;;
1545;SDS011;766;51.502;9.752;2022-11-20T15:33:28;9.17;;;4.47;;
1545;SDS011;766;51.502;9.752;2022-11-20T15:35:59;7.70;;;4.13;;
1545;SDS011;766;51.502;9.752;2022-11-20T15:38:29;9.67;;;4.40;;
1545;SDS011;766;51.502;9.752;2022-11-20T15:40:57;8.53;;;4.57;;
1545;SDS011;766;51.502;9.752;2022-11-20T15:43:26;7.93;;;3.90;;
1545;SDS011;766;51.502;9.752;2022-11-20T15:45:55;6.97;;;3.77;;
1545;SDS011;766;51.502;9.752;2022-11-20T15:48:27;6.67;;;3.73;;
1545;SDS011;766;51.502;9.752;2022-11-20T15:51:00;6.67;;;3.67;;
1545;SDS011;766;51.502;9.752;2022-11-20T15:53:32;8.20;;;3.30;;
1545;SDS011;766;51.502;9.752;2022-11-20T15:56:01;6.73;;;3.50;;
1545;SDS011;766;51.502;9.752;2022-11-20T15:58:30;9.53;;;5.07;;
1545;SDS011;766;51.502;9.752;2022-11-20T16:00:58;6.20;;;3.30;;